Time;durP1;ratioP1;P1;durP2;ratioP2;P2;SDS_P1;SDS_P2;PMS_P1;PMS_P2;Temp;Humidity;BMP_temperature;BMP_pressure;BME280_temperature;BME280_humidity;BME280_pressure;Samples;Min_cycle;Max_cycle;Signal;HPM_P1;HPM_P2
2023/07/27 16:50:09;;;;;;;0.50;0.20;;;;;;;20.17;100.00;99566.34;10246244;22;1323787;-87
2023/07/27 16:55:35;;;;;;;0.22;0.20;;;;;;;20.09;100.00;99575.69;8416224;27;20951;-64
2023/07/27 16:59:36;;;;;;;0.40;0.20;;;;;;;20.03;100.00;99581.25;8464158;27;20114;-64
2023/07/27 17:03:36;;;;;;;1.52;0.20;;;;;;;20.02;100.00;99590.50;8453289;27;20048;-64
2023/07/27 17:07:37;;;;;;;0.50;0.20;;;;;;;19.95;100.00;99584.25;8427904;27;20547;-64
2023/07/27 17:11:37;;;;;;;0.70;0.20;;;;;;;19.91;100.00;99583.03;8427241;27;20374;-64
2023/07/27 17:15:37;;;;;;;0.65;0.30;;;;;;;19.86;100.00;99591.06;8427769;27;20036;-65
2023/07/27 17:19:38;;;;;;;0.40;0.30;;;;;;;19.77;100.00;99593.25;8425550;27;20111;-65
2023/07/27 17:23:38;;;;;;;0.45;0.32;;;;;;;19.74;100.00;99587.38;8437275;27;20032;-64
2023/07/27 17:27:41;;;;;;;2.58;0.40;;;;;;;19.66;100.00;99596.69;8429820;27;20033;-64
2023/07/27 17:31:42;;;;;;;1.02;0.50;;;;;;;19.66;100.00;99595.84;8427242;27;20086;-64
2023/07/27 17:35:42;;;;;;;1.05;0.50;;;;;;;19.68;100.00;99591.00;8426829;27;20046;-64
2023/07/27 17:39:43;;;;;;;0.88;0.75;;;;;;;19.65;100.00;99592.28;8430632;27;20046;-64
2023/07/27 17:43:43;;;;;;;1.40;0.65;;;;;;;19.63;100.00;99610.00;8427551;27;20475;-64
2023/07/27 17:47:44;;;;;;;1.20;0.80;;;;;;;19.61;100.00;99604.72;8432941;27;20036;-64
2023/07/27 17:51:44;;;;;;;1.55;0.70;;;;;;;19.57;100.00;99605.44;8428708;27;20035;-64
2023/07/27 17:55:45;;;;;;;0.98;0.85;;;;;;;19.56;100.00;99601.84;8428711;27;20040;-64
2023/07/27 17:59:45;;;;;;;1.50;0.77;;;;;;;19.58;100.00;99609.84;8428760;27;20048;-64
2023/07/27 18:03:46;;;;;;;1.27;0.85;;;;;;;19.60;100.00;99605.00;8426287;27;20093;-64
2023/07/27 18:07:46;;;;;;;1.33;0.80;;;;;;;19.60;100.00;99599.50;8394649;28;20075;-64
2023/07/27 18:11:47;;;;;;;2.75;1.40;;;;;;;19.64;100.00;99598.00;8405451;28;20044;-64
2023/07/27 18:15:47;;;;;;;3.75;1.15;;;;;;;19.65;100.00;99606.00;8399378;28;20391;-62
2023/07/27 18:19:48;;;;;;;2.42;1.15;;;;;;;19.63;100.00;99610.84;8403589;28;20044;-64
2023/07/27 18:23:48;;;;;;;2.08;1.30;;;;;;;19.58;100.00;99602.47;8411840;27;20336;-63
2023/07/27 18:27:50;;;;;;;3.03;1.25;;;;;;;19.61;100.00;99614.88;8404461;28;20101;-64
2023/07/27 18:31:50;;;;;;;2.33;1.50;;;;;;;19.61;100.00;99614.88;8399941;28;20465;-64
2023/07/27 18:35:51;;;;;;;1.73;1.25;;;;;;;19.58;100.00;99610.69;8401561;28;20347;-64
2023/07/27 18:39:51;;;;;;;1.30;1.10;;;;;;;19.55;100.00;99610.28;8404472;28;20513;-64
2023/07/27 18:43:52;;;;;;;2.15;1.42;;;;;;;19.49;100.00;99607.34;8403425;28;20493;-64
2023/07/27 18:47:52;;;;;;;1.15;0.98;;;;;;;19.49;100.00;99612.81;8404096;28;20066;-63
2023/07/27 18:51:53;;;;;;;2.92;1.20;;;;;;;19.51;100.00;99603.56;8404626;28;20060;-64
2023/07/27 18:55:53;;;;;;;2.00;1.40;;;;;;;19.53;100.00;99607.75;8402390;28;20132;-64
2023/07/27 18:59:54;;;;;;;2.28;1.25;;;;;;;19.52;100.00;99604.16;8404025;28;20170;-64
2023/07/27 19:03:54;;;;;;;2.00;1.50;;;;;;;19.51;100.00;99609.03;8398179;28;20190;-64
2023/07/27 19:07:55;;;;;;;2.13;1.20;;;;;;;19.51;100.00;99609.03;8404323;28;20089;-64
2023/07/27 19:11:55;;;;;;;3.42;1.42;;;;;;;19.51;100.00;99620.00;8402405;28;20085;-64
2023/07/27 19:15:57;;;;;;;1.65;1.25;;;;;;;19.49;100.00;99621.06;8401914;28;20139;-64
2023/07/27 19:19:58;;;;;;;1.40;1.05;;;;;;;19.53;100.00;99618.72;8403491;28;20041;-64
2023/07/27 19:23:58;;;;;;;1.30;1.20;;;;;;;19.58;100.00;99621.66;8403628;28;20039;-64
2023/07/27 19:27:59;;;;;;;1.83;0.95;;;;;;;19.59;100.00;99622.47;8403571;28;20040;-64
2023/07/27 19:32:00;;;;;;;1.23;0.63;;;;;;;19.51;100.00;99625.50;8400316;28;20050;-64
2023/07/27 19:36:00;;;;;;;2.17;1.00;;;;;;;19.46;100.00;99635.19;8400132;28;20532;-63
2023/07/27 19:40:02;;;;;;;2.25;0.80;;;;;;;19.43;100.00;99635.63;8401435;28;20094;-64
2023/07/27 19:44:03;;;;;;;1.58;1.00;;;;;;;19.36;100.00;99637.56;8399441;28;20123;-64
2023/07/27 19:48:03;;;;;;;4.53;1.15;;;;;;;19.37;100.00;99632.94;8401927;28;20049;-64
2023/07/27 19:52:04;;;;;;;1.58;1.30;;;;;;;19.32;100.00;99632.75;8402591;28;20032;-64
2023/07/27 19:56:05;;;;;;;1.42;1.08;;;;;;;19.32;100.00;99633.59;8400893;28;20044;-64
2023/07/27 20:00:08;;;;;;;2.53;1.00;;;;;;;19.29;100.00;99645.00;8398553;28;20032;-64
2023/07/27 20:04:14;;;;;;;1.60;1.08;;;;;;;19.22;100.00;99646.88;8399022;28;20028;-64
2023/07/27 20:08:15;;;;;;;1.55;0.90;;;;;;;19.15;100.00;99646.06;8398636;28;20033;-63
2023/07/27 20:12:15;;;;;;;4.03;1.20;;;;;;;19.15;100.00;99643.31;8402707;28;20040;-64
2023/07/27 20:16:16;;;;;;;2.45;1.25;;;;;;;19.19;100.00;99647.31;8399484;28;20161;-64
2023/07/27 20:20:16;;;;;;;2.65;1.17;;;;;;;19.20;100.00;99650.91;8399104;28;20649;-64
2023/07/27 20:24:17;;;;;;;2.35;1.55;;;;;;;19.21;100.00;99641.59;8408209;28;20491;-64
2023/07/27 20:28:17;;;;;;;1.60;0.90;;;;;;;19.21;100.00;99642.47;8400474;28;20037;-62
2023/07/27 20:32:18;;;;;;;2.13;1.15;;;;;;;19.18;100.00;99629.19;8404596;28;20050;-63
2023/07/27 20:36:19;;;;;;;2.80;1.25;;;;;;;19.14;100.00;99638.91;8405788;28;20094;-63
2023/07/27 20:40:19;;;;;;;2.00;0.90;;;;;;;19.09;100.00;99638.72;8403435;28;20392;-64
2023/07/27 20:44:20;;;;;;;2.17;1.23;;;;;;;19.07;100.00;99646.31;8400638;28;20036;-64
2023/07/27 20:48:21;;;;;;;2.13;0.82;;;;;;;19.04;100.00;99649.50;8400048;28;20485;-64
2023/07/27 20:52:21;;;;;;;1.40;0.82;;;;;;;18.90;100.00;99644.25;8399427;28;20048;-64
2023/07/27 20:56:22;;;;;;;3.10;0.80;;;;;;;18.89;100.00;99645.31;8411962;28;20036;-64
2023/07/27 21:00:22;;;;;;;1.10;0.73;;;;;;;18.85;100.00;99642.16;8401118;28;20044;-64
2023/07/27 21:04:23;;;;;;;1.35;0.93;;;;;;;18.88;100.00;99651.88;8401969;28;20082;-64
2023/07/27 21:08:23;;;;;;;4.25;0.75;;;;;;;18.89;100.00;99650.81;8401833;28;20044;-64
2023/07/27 21:12:24;;;;;;;3.60;1.17;;;;;;;18.83;100.00;99649.78;8397892;28;20409;-64
2023/07/27 21:16:25;;;;;;;3.38;0.95;;;;;;;18.79;100.00;99648.50;8400829;28;20046;-65
2023/07/27 21:20:28;;;;;;;1.30;0.90;;;;;;;18.77;100.00;99650.63;8399878;28;20343;-64
2023/07/27 21:24:29;;;;;;;1.85;1.15;;;;;;;18.75;100.00;99644.50;8408924;28;20077;-65
2023/07/27 21:28:29;;;;;;;4.47;1.10;;;;;;;18.70;100.00;99646.22;8402051;28;20083;-65
2023/07/27 21:32:30;;;;;;;4.13;0.98;;;;;;;18.63;100.00;99637.19;8399591;28;20032;-64
2023/07/27 21:36:30;;;;;;;1.42;0.82;;;;;;;18.58;100.00;99635.09;8401897;28;20123;-64
2023/07/27 21:40:35;;;;;;;1.92;1.08;;;;;;;18.55;100.00;99635.50;8405636;28;20036;-63
2023/07/27 21:44:35;;;;;;;;;;;;;;;18.49;100.00;99638.25;8413352;28;20115;-63
2023/07/27 21:48:35;;;;;;;2.07;0.97;;;;;;;18.45;100.00;99639.72;8412872;28;19924;-64
2023/07/27 21:52:36;;;;;;;2.67;0.90;;;;;;;18.41;100.00;99633.84;8409494;28;20634;-64
2023/07/27 21:56:36;;;;;;;2.75;1.15;;;;;;;18.40;100.00;99631.31;8410670;28;20519;-64
2023/07/27 22:00:38;;;;;;;7.05;1.10;;;;;;;18.41;100.00;99632.97;8405143;28;20116;-64
2023/07/27 22:04:39;;;;;;;2.88;1.27;;;;;;;18.42;100.00;99629.22;8406231;28;20040;-64
2023/07/27 22:08:39;;;;;;;1.08;0.90;;;;;;;18.41;100.00;99622.03;8409480;28;20089;-64
2023/07/27 22:12:42;;;;;;;0.93;0.60;;;;;;;18.38;100.00;99623.31;8411322;28;20532;-64
2023/07/27 22:16:42;;;;;;;1.17;0.80;;;;;;;18.36;100.00;99619.91;8408151;28;20039;-64
2023/07/27 22:20:43;;;;;;;4.13;0.80;;;;;;;18.40;100.00;99614.88;8419820;28;20039;-64
2023/07/27 22:24:43;;;;;;;1.45;0.70;;;;;;;18.33;100.00;99620.31;8410704;28;20046;-64
2023/07/27 22:28:44;;;;;;;1.60;1.00;;;;;;;18.34;100.00;99622.03;8407202;28;20032;-64
2023/07/27 22:32:44;;;;;;;1.08;0.63;;;;;;;18.35;100.00;99618.22;8403557;28;20067;-64
2023/07/27 22:36:45;;;;;;;0.80;0.57;;;;;;;18.33;100.00;99609.38;8405880;28;20124;-64
2023/07/27 22:40:55;;;;;;;1.60;0.63;;;;;;;18.33;100.00;99614.84;8413518;28;20401;-65
2023/07/27 22:44:56;;;;;;;2.85;0.80;;;;;;;18.30;100.00;99603.50;8417269;28;20051;-64
2023/07/27 22:48:56;;;;;;;2.33;0.63;;;;;;;18.30;100.00;99608.97;8418976;28;20039;-64
2023/07/27 22:52:57;;;;;;;2.45;0.60;;;;;;;18.29;100.00;99602.66;8418826;28;20156;-64
2023/07/27 22:56:57;;;;;;;2.47;1.08;;;;;;;18.31;100.00;99605.19;8416792;28;20051;-64
2023/07/27 23:01:09;;;;;;;1.90;1.05;;;;;;;18.29;100.00;99615.47;8415464;28;20036;-64
2023/07/27 23:05:10;;;;;;;3.72;0.60;;;;;;;18.29;100.00;99605.38;8415392;28;20448;-64
2023/07/27 23:09:10;;;;;;;1.38;0.85;;;;;;;18.32;100.00;99601.38;8416065;28;20054;-64
2023/07/27 23:13:11;;;;;;;0.88;0.70;;;;;;;18.33;100.00;99597.59;8421183;28;20039;-64
2023/07/27 23:17:11;;;;;;;1.20;0.70;;;;;;;18.32;100.00;99612.31;8418046;28;20458;-64
2023/07/27 23:21:11;;;;;;;0.73;0.60;;;;;;;18.30;100.00;99609.78;8418442;28;20270;-64
2023/07/27 23:25:12;;;;;;;1.95;0.50;;;;;;;18.28;100.00;99600.97;8418143;27;20047;-64
2023/07/27 23:29:13;;;;;;;0.45;0.40;;;;;;;18.34;100.00;99632.97;8416326;28;20511;-64
2023/07/27 23:33:13;;;;;;;1.40;0.47;;;;;;;18.35;100.00;99612.75;8414634;28;20063;-64
2023/07/27 23:37:14;;;;;;;1.20;0.50;;;;;;;18.40;100.00;99615.75;8425466;27;20062;-64
2023/07/27 23:41:14;;;;;;;0.85;0.50;;;;;;;18.40;100.00;99626.69;8426069;27;20066;-64
2023/07/27 23:45:15;;;;;;;1.60;0.65;;;;;;;18.46;100.00;99631.31;8415563;28;20439;-64
2023/07/27 23:49:15;;;;;;;0.55;0.40;;;;;;;18.48;100.00;99628.38;8416346;28;20036;-64
2023/07/27 23:53:16;;;;;;;0.35;0.30;;;;;;;18.49;100.00;99622.66;8418941;28;20038;-63
2023/07/27 23:57:16;;;;;;;0.70;0.50;;;;;;;18.50;100.00;99621.59;8417410;28;20097;-64
